Time;durP1;ratioP1;P1;durP2;ratioP2;P2;SDS_P1;SDS_P2;PMS_P1;PMS_P2;Temp;Humidity;BMP_temperature;BMP_pressure;BME280_temperature;BME280_humidity;BME280_pressure;Samples;Min_cycle;Max_cycle;Signal;HPM_P1;HPM_P2
2023/09/05 00:00:10;;;;;;;13.47;12.67;;;15.70;99.90;;;;;;5040418;28;20466;-45
2023/09/05 00:02:39;;;;;;;14.50;13.63;;;15.60;99.90;;;;;;5042533;28;20423;-43
2023/09/05 00:05:09;;;;;;;13.40;12.67;;;15.60;99.90;;;;;;5042731;28;20483;-46
2023/09/05 00:07:35;;;;;;;14.40;13.60;;;15.60;99.90;;;;;;5042239;28;20801;-44
2023/09/05 00:10:20;;;;;;;13.50;12.60;;;15.60;99.90;;;;;;5041229;28;20446;-46
2023/09/05 00:12:46;;;;;;;13.63;12.83;;;15.60;99.90;;;;;;5042332;28;20450;-44
2023/09/05 00:15:13;;;;;;;14.03;13.33;;;15.50;99.90;;;;;;5039963;28;21012;-46
2023/09/05 00:17:41;;;;;;;14.10;13.30;;;15.50;99.90;;;;;;5040525;28;20451;-43
2023/09/05 00:20:08;;;;;;;13.77;12.97;;;15.50;99.90;;;;;;5041346;28;20444;-41
2023/09/05 00:22:34;;;;;;;13.90;13.00;;;15.50;99.90;;;;;;5042418;28;20423;-42
2023/09/05 00:25:00;;;;;;;14.20;13.40;;;15.50;99.90;;;;;;5040604;28;20468;-41
2023/09/05 00:27:25;;;;;;;15.20;14.20;;;15.50;99.90;;;;;;5040816;28;20459;-44
2023/09/05 00:29:51;;;;;;;14.97;14.07;;;15.40;99.90;;;;;;5041497;28;20221;-43
2023/09/05 00:32:18;;;;;;;15.17;14.23;;;15.40;99.90;;;;;;5042797;28;20855;-43
2023/09/05 00:34:44;;;;;;;14.80;13.90;;;15.40;99.90;;;;;;5042257;28;20261;-42
2023/09/05 00:37:10;;;;;;;14.93;14.03;;;15.30;99.90;;;;;;5040755;28;20420;-45
2023/09/05 00:39:40;;;;;;;15.00;13.90;;;15.30;99.90;;;;;;5041227;28;20541;-46
2023/09/05 00:42:10;;;;;;;15.13;14.13;;;15.20;99.90;;;;;;5041966;28;20929;-46
2023/09/05 00:44:37;;;;;;;14.90;14.00;;;15.20;99.90;;;;;;5039627;28;20428;-47
2023/09/05 00:47:04;;;;;;;15.37;14.43;;;15.10;99.90;;;;;;5041592;28;20461;-42
2023/09/05 00:49:39;;;;;;;15.80;14.60;;;15.10;99.90;;;;;;5039959;28;20443;-42
2023/09/05 00:52:06;;;;;;;15.93;14.93;;;15.00;99.90;;;;;;5040059;28;20471;-42
2023/09/05 00:54:34;;;;;;;15.57;14.47;;;15.00;99.90;;;;;;5041957;28;20770;-44
2023/09/05 00:57:00;;;;;;;15.90;14.93;;;15.00;99.90;;;;;;5041632;28;20886;-42
2023/09/05 00:59:26;;;;;;;15.70;14.70;;;15.00;99.90;;;;;;5040572;28;20493;-44
2023/09/05 01:01:54;;;;;;;15.33;14.43;;;14.90;99.90;;;;;;5040129;28;20914;-43
2023/09/05 01:04:20;;;;;;;14.83;13.93;;;14.90;99.90;;;;;;5040163;28;20436;-47
2023/09/05 01:07:03;;;;;;;14.07;13.27;;;14.90;99.90;;;;;;5042062;28;21344;-43
2023/09/05 01:09:54;;;;;;;15.70;14.53;;;14.90;99.90;;;;;;5039528;28;20193;-45
2023/09/05 01:12:20;;;;;;;14.90;14.00;;;14.80;99.90;;;;;;5038406;28;20470;-44
2023/09/05 01:14:45;;;;;;;15.33;14.27;;;14.80;99.90;;;;;;5056365;28;20448;-45
2023/09/05 01:17:11;;;;;;;14.30;13.40;;;14.80;99.90;;;;;;5041341;28;20431;-44
2023/09/05 01:19:41;;;;;;;14.70;13.70;;;14.80;99.90;;;;;;5040211;28;20296;-43
2023/09/05 01:22:13;;;;;;;14.87;13.90;;;14.80;99.90;;;;;;5040933;28;20268;-45
2023/09/05 01:24:40;;;;;;;15.03;14.13;;;14.70;99.90;;;;;;5055844;28;20946;-47
2023/09/05 01:27:07;;;;;;;14.20;13.30;;;14.70;99.90;;;;;;5041449;28;20796;-46
2023/09/05 01:29:39;;;;;;;14.93;14.03;;;14.70;99.90;;;;;;5040559;28;20444;-54
2023/09/05 01:32:09;;;;;;;14.40;13.50;;;14.70;99.90;;;;;;5040215;28;20432;-52
2023/09/05 01:34:34;;;;;;;15.10;14.10;;;14.70;99.90;;;;;;5040216;28;20493;-55
2023/09/05 01:37:00;;;;;;;15.10;14.10;;;14.70;99.90;;;;;;5040715;28;20491;-52
2023/09/05 01:39:26;;;;;;;14.60;13.70;;;14.70;99.90;;;;;;5038857;28;20190;-50
2023/09/05 01:41:51;;;;;;;14.00;13.10;;;14.70;99.90;;;;;;5040196;28;20191;-51
2023/09/05 01:44:17;;;;;;;14.60;13.60;;;14.70;99.90;;;;;;5041045;28;20193;-52
2023/09/05 01:46:43;;;;;;;14.67;13.77;;;14.70;99.90;;;;;;5039904;28;20210;-51
2023/09/05 01:49:09;;;;;;;13.67;12.77;;;14.70;99.90;;;;;;5038510;28;20194;-53
2023/09/05 01:51:34;;;;;;;14.37;13.37;;;14.70;99.90;;;;;;5036979;28;20470;-50
2023/09/05 01:54:00;;;;;;;14.47;13.57;;;14.70;99.90;;;;;;5040446;28;20193;-51
2023/09/05 01:56:26;;;;;;;13.70;12.97;;;14.80;99.90;;;;;;5040983;28;20188;-52
2023/09/05 01:58:51;;;;;;;14.10;13.20;;;14.80;99.90;;;;;;5038792;28;20239;-55
2023/09/05 02:01:17;;;;;;;13.33;12.53;;;14.80;99.90;;;;;;5039946;28;20292;-53
2023/09/05 02:03:43;;;;;;;13.77;12.97;;;14.80;99.90;;;;;;5039771;28;20671;-52
2023/09/05 02:06:09;;;;;;;14.10;12.97;;;14.80;99.90;;;;;;5038750;28;20209;-50
2023/09/05 02:08:35;;;;;;;14.17;13.37;;;14.80;99.90;;;;;;5040374;28;20447;-53
2023/09/05 02:11:01;;;;;;;13.50;12.70;;;14.80;99.90;;;;;;5038666;28;20193;-52
2023/09/05 02:13:28;;;;;;;14.43;13.33;;;14.80;99.90;;;;;;5038667;28;20531;-53
2023/09/05 02:15:54;;;;;;;14.03;13.23;;;14.80;99.90;;;;;;5039253;28;22697;-53
2023/09/05 02:18:20;;;;;;;13.73;12.93;;;14.80;99.90;;;;;;5036695;28;20443;-54
2023/09/05 02:20:45;;;;;;;13.70;12.90;;;14.70;99.90;;;;;;5040460;28;20189;-53
2023/09/05 02:23:11;;;;;;;13.20;12.40;;;14.80;99.90;;;;;;5039190;28;20563;-54
2023/09/05 02:25:37;;;;;;;13.60;12.80;;;14.80;99.90;;;;;;5038922;28;20244;-51
2023/09/05 02:28:03;;;;;;;13.40;12.37;;;14.80;99.90;;;;;;5039115;28;20193;-53
2023/09/05 02:30:29;;;;;;;13.70;12.90;;;14.80;99.90;;;;;;5039404;28;20222;-56
2023/09/05 02:32:56;;;;;;;13.23;12.43;;;14.80;99.90;;;;;;5038824;28;20181;-55
2023/09/05 02:35:27;;;;;;;14.07;13.17;;;14.80;99.90;;;;;;5038148;28;20484;-51
2023/09/05 02:37:54;;;;;;;13.97;13.17;;;14.70;99.90;;;;;;5039294;28;20443;-51
2023/09/05 02:40:20;;;;;;;13.57;12.67;;;14.80;99.90;;;;;;5038353;28;20486;-51
2023/09/05 02:42:46;;;;;;;14.50;13.60;;;14.80;99.90;;;;;;5040606;28;20910;-54
2023/09/05 02:45:12;;;;;;;13.67;12.80;;;14.80;99.90;;;;;;5040095;28;20496;-53
2023/09/05 02:47:38;;;;;;;14.00;13.20;;;14.80;99.90;;;;;;5038909;28;20190;-53
2023/09/05 02:50:04;;;;;;;13.50;12.70;;;14.80;99.90;;;;;;5037935;28;20953;-54
2023/09/05 02:52:30;;;;;;;13.97;13.17;;;14.80;99.90;;;;;;5039519;28;20272;-54
2023/09/05 02:54:55;;;;;;;13.40;12.60;;;14.80;99.90;;;;;;5040128;28;20760;-52
2023/09/05 02:57:22;;;;;;;13.10;12.37;;;14.70;99.90;;;;;;5039068;28;20527;-55
2023/09/05 02:59:54;;;;;;;14.27;13.37;;;14.80;99.90;;;;;;5038321;28;20204;-55
2023/09/05 03:02:22;;;;;;;13.90;13.10;;;14.70;99.90;;;;;;5037942;28;21006;-55
2023/09/05 03:04:51;;;;;;;13.63;12.93;;;14.70;99.90;;;;;;5043209;28;20466;-50
2023/09/05 03:07:18;;;;;;;14.33;13.43;;;14.70;99.90;;;;;;5044151;28;20486;-55
2023/09/05 03:09:44;;;;;;;14.00;13.20;;;14.70;99.90;;;;;;5041805;28;20440;-54
2023/09/05 03:12:11;;;;;;;13.60;12.80;;;14.70;99.90;;;;;;5043291;28;20449;-56
2023/09/05 03:14:37;;;;;;;14.27;13.47;;;14.60;99.90;;;;;;5042111;28;20255;-44
2023/09/05 03:17:04;;;;;;;15.03;14.13;;;14.60;99.90;;;;;;5043490;28;20416;-56
2023/09/05 03:19:30;;;;;;;13.53;12.77;;;14.60;99.90;;;;;;5042971;28;20440;-54
2023/09/05 03:21:56;;;;;;;14.53;13.53;;;14.60;99.90;;;;;;5043722;28;20427;-54
2023/09/05 03:24:24;;;;;;;14.00;13.20;;;14.60;99.90;;;;;;5043631;28;20362;-53
2023/09/05 03:26:50;;;;;;;14.37;13.30;;;14.50;99.90;;;;;;5043715;28;20694;-54
2023/09/05 03:29:16;;;;;;;14.70;13.60;;;14.50;99.90;;;;;;5041857;28;20444;-50
2023/09/05 03:31:41;;;;;;;13.70;12.80;;;14.50;99.90;;;;;;5043795;28;20655;-53
2023/09/05 03:34:08;;;;;;;13.60;12.70;;;14.50;99.90;;;;;;5042921;28;20735;-52
2023/09/05 03:36:34;;;;;;;14.33;13.47;;;14.40;99.90;;;;;;5042010;28;20189;-56
2023/09/05 03:38:59;;;;;;;13.57;12.87;;;14.40;99.90;;;;;;5042785;28;20435;-53
2023/09/05 03:41:25;;;;;;;12.83;12.03;;;14.40;99.90;;;;;;5043595;28;20432;-54
2023/09/05 03:43:51;;;;;;;13.60;12.60;;;14.40;99.90;;;;;;5043406;28;20275;-51
2023/09/05 03:46:16;;;;;;;13.90;13.07;;;14.40;99.90;;;;;;5041816;28;20213;-47
2023/09/05 03:48:42;;;;;;;14.20;13.00;;;14.40;99.90;;;;;;5040852;28;21181;-54
2023/09/05 03:51:07;;;;;;;13.80;13.00;;;14.40;99.90;;;;;;5041856;28;20550;-52
2023/09/05 03:53:33;;;;;;;14.00;13.10;;;14.40;99.90;;;;;;5043057;28;20185;-54
2023/09/05 03:55:59;;;;;;;14.63;13.63;;;14.40;99.90;;;;;;5040150;28;20198;-54
2023/09/05 03:58:25;;;;;;;14.10;13.20;;;14.40;99.90;;;;;;5041548;28;20440;-48
2023/09/05 04:00:51;;;;;;;14.43;13.43;;;14.40;99.90;;;;;;5039901;28;20232;-53
2023/09/05 04:03:16;;;;;;;14.47;13.57;;;14.40;99.90;;;;;;5041952;28;20195;-51
2023/09/05 04:05:42;;;;;;;15.60;14.50;;;14.40;99.90;;;;;;5042673;28;20240;-51
2023/09/05 04:08:08;;;;;;;14.27;13.37;;;14.40;99.90;;;;;;5042864;28;20678;-50
2023/09/05 04:10:34;;;;;;;14.80;13.70;;;14.40;99.90;;;;;;5040150;28;20170;-53
2023/09/05 04:13:00;;;;;;;14.07;12.90;;;14.30;99.90;;;;;;5042670;28;20427;-55
2023/09/05 04:15:26;;;;;;;14.10;13.27;;;14.30;99.90;;;;;;5041629;28;21278;-51
2023/09/05 04:17:51;;;;;;;14.37;13.33;;;14.30;99.90;;;;;;5040925;28;20527;-52
2023/09/05 04:20:18;;;;;;;14.13;13.13;;;14.30;99.90;;;;;;5041017;28;20440;-54
2023/09/05 04:22:44;;;;;;;14.37;13.43;;;14.30;99.90;;;;;;5041843;28;20209;-55
2023/09/05 04:25:09;;;;;;;15.20;14.20;;;14.30;99.90;;;;;;5038428;28;20468;-50
2023/09/05 04:27:36;;;;;;;14.03;13.13;;;14.30;99.90;;;;;;5041932;28;20930;-55
2023/09/05 04:30:02;;;;;;;14.10;13.10;;;14.30;99.90;;;;;;5042518;28;20174;-54
2023/09/05 04:32:28;;;;;;;15.27;14.37;;;14.30;99.90;;;;;;5041512;28;20436;-52
2023/09/05 04:35:01;;;;;;;14.83;13.83;;;14.30;99.90;;;;;;5042410;28;20463;-52
2023/09/05 04:37:27;;;;;;;15.60;14.60;;;14.30;99.90;;;;;;5042366;28;20740;-56
2023/09/05 04:39:57;;;;;;;15.60;14.50;;;14.40;99.90;;;;;;5039787;28;20512;-55
2023/09/05 04:42:25;;;;;;;13.90;12.90;;;14.40;99.90;;;;;;5039938;28;21334;-50
2023/09/05 04:44:51;;;;;;;15.30;14.20;;;14.40;99.90;;;;;;5042031;28;20506;-49
2023/09/05 04:47:24;;;;;;;14.87;13.87;;;14.40;99.90;;;;;;5042340;28;20428;-51
2023/09/05 04:49:51;;;;;;;14.20;13.30;;;14.50;99.90;;;;;;5042297;28;20182;-52
2023/09/05 04:52:19;;;;;;;13.90;13.00;;;14.50;99.90;;;;;;5042346;28;20436;-53
2023/09/05 04:54:45;;;;;;;15.13;14.13;;;14.50;99.90;;;;;;5040936;28;20452;-53
2023/09/05 04:57:12;;;;;;;15.80;14.67;;;14.60;99.90;;;;;;5041993;28;20520;-51
2023/09/05 04:59:38;;;;;;;14.67;13.67;;;14.60;99.90;;;;;;5041944;28;20422;-54
2023/09/05 05:02:04;;;;;;;14.67;13.77;;;14.60;99.90;;;;;;5040439;28;20432;-57
2023/09/05 05:04:30;;;;;;;14.33;13.47;;;14.70;99.90;;;;;;5041714;28;20409;-55
2023/09/05 05:06:56;;;;;;;14.67;13.30;;;14.70;99.90;;;;;;5042011;28;20574;-55
2023/09/05 05:09:22;;;;;;;14.00;13.20;;;14.80;99.90;;;;;;5041890;28;20513;-52
2023/09/05 05:11:47;;;;;;;14.70;13.80;;;14.80;99.90;;;;;;5041675;28;20462;-54
2023/09/05 05:14:13;;;;;;;14.13;13.33;;;14.90;99.90;;;;;;5041706;28;20185;-51
2023/09/05 05:16:38;;;;;;;14.67;13.70;;;15.00;99.90;;;;;;5040524;28;20186;-52
2023/09/05 05:19:04;;;;;;;14.40;13.60;;;15.10;99.90;;;;;;5040957;28;21235;-55
2023/09/05 05:21:30;;;;;;;14.00;13.00;;;15.10;99.90;;;;;;5040549;28;20193;-48
2023/09/05 05:23:56;;;;;;;14.10;13.30;;;15.20;99.90;;;;;;5040710;28;20178;-52
2023/09/05 05:26:21;;;;;;;14.13;13.33;;;15.40;99.90;;;;;;5040089;28;20525;-51
2023/09/05 05:28:47;;;;;;;15.00;14.00;;;15.50;99.90;;;;;;5040534;28;20182;-52
2023/09/05 05:31:13;;;;;;;14.73;13.93;;;15.60;99.90;;;;;;5041152;28;20655;-55
2023/09/05 05:33:39;;;;;;;13.50;12.70;;;15.70;99.90;;;;;;5040774;28;20681;-52
2023/09/05 05:36:05;;;;;;;14.60;13.80;;;15.80;99.90;;;;;;5039530;28;20542;-54
2023/09/05 05:38:30;;;;;;;13.90;13.10;;;15.90;99.90;;;;;;5039617;28;20718;-54
2023/09/05 05:40:58;;;;;;;14.07;13.30;;;16.00;99.90;;;;;;5040669;28;20411;-52
2023/09/05 05:43:27;;;;;;;13.33;12.60;;;16.10;99.90;;;;;;5040698;28;20272;-55
2023/09/05 05:45:53;;;;;;;13.87;13.07;;;16.10;99.90;;;;;;5039783;28;20499;-54
2023/09/05 05:48:19;;;;;;;15.13;13.87;;;16.20;99.90;;;;;;5039750;28;20432;-54
2023/09/05 05:50:44;;;;;;;14.90;14.00;;;16.30;99.90;;;;;;5040583;28;20470;-53
2023/09/05 05:53:10;;;;;;;13.50;12.73;;;16.30;99.90;;;;;;5039641;28;20420;-55
2023/09/05 05:55:36;;;;;;;14.00;13.20;;;16.40;99.90;;;;;;5040251;28;20288;-51
2023/09/05 05:58:01;;;;;;;14.23;13.23;;;16.50;99.90;;;;;;5040614;28;20550;-56
2023/09/05 06:00:29;;;;;;;14.10;13.30;;;16.70;99.90;;;;;;5040805;28;20182;-51
2023/09/05 06:02:55;;;;;;;13.80;13.10;;;16.70;99.90;;;;;;5040320;28;20190;-51
2023/09/05 06:05:22;;;;;;;14.07;13.17;;;16.90;99.90;;;;;;5040627;28;20456;-53
2023/09/05 06:07:49;;;;;;;13.33;12.43;;;17.00;99.90;;;;;;5040591;28;20466;-53
2023/09/05 06:10:15;;;;;;;13.93;13.13;;;17.10;99.90;;;;;;5040735;28;21287;-54
2023/09/05 06:12:41;;;;;;;12.73;12.03;;;17.20;99.90;;;;;;5040791;28;20427;-54
2023/09/05 06:15:07;;;;;;;13.07;12.27;;;17.30;99.90;;;;;;5039559;28;20198;-53
2023/09/05 06:17:33;;;;;;;13.13;12.43;;;17.40;99.90;;;;;;5040416;28;20255;-51
2023/09/05 06:19:59;;;;;;;12.90;12.20;;;17.50;99.90;;;;;;5040788;28;20442;-48
2023/09/05 06:22:24;;;;;;;12.67;12.07;;;17.60;99.90;;;;;;5040343;28;20651;-54
2023/09/05 06:24:50;;;;;;;12.80;12.10;;;17.70;99.90;;;;;;5040849;28;20190;-50
2023/09/05 06:27:15;;;;;;;13.30;12.50;;;17.80;99.90;;;;;;5038878;28;20185;-46
2023/09/05 06:29:41;;;;;;;13.30;12.50;;;18.00;99.90;;;;;;5040653;28;20185;-55
2023/09/05 06:32:06;;;;;;;13.07;12.40;;;18.10;99.90;;;;;;5040189;28;20413;-57
2023/09/05 06:34:32;;;;;;;13.80;13.00;;;18.10;99.90;;;;;;5040034;28;20230;-57
2023/09/05 06:36:58;;;;;;;13.50;12.80;;;18.20;99.90;;;;;;5041047;28;20186;-55
2023/09/05 06:39:24;;;;;;;12.00;11.20;;;18.30;99.90;;;;;;5045431;28;20220;-54
2023/09/05 06:41:50;;;;;;;12.90;12.20;;;18.30;99.90;;;;;;5045722;28;20280;-58
2023/09/05 06:44:16;;;;;;;12.30;11.70;;;18.40;99.90;;;;;;5046528;28;20679;-48
2023/09/05 06:46:41;;;;;;;13.70;12.90;;;18.50;99.90;;;;;;5045259;28;20562;-52
2023/09/05 06:49:07;;;;;;;12.37;11.77;;;18.60;99.90;;;;;;5045794;28;20185;-52
2023/09/05 06:51:32;;;;;;;12.50;11.80;;;18.70;99.90;;;;;;5046790;28;20188;-54
2023/09/05 06:53:58;;;;;;;12.43;11.83;;;18.70;99.90;;;;;;5047226;28;20189;-53
2023/09/05 06:56:25;;;;;;;12.93;12.23;;;18.80;99.90;;;;;;5046605;28;20189;-52
2023/09/05 06:58:51;;;;;;;13.00;12.30;;;18.90;99.90;;;;;;5046806;28;20428;-51
2023/09/05 07:01:16;;;;;;;12.83;12.20;;;18.90;99.90;;;;;;5045128;28;20427;-48
2023/09/05 07:03:42;;;;;;;13.17;12.47;;;19.00;99.90;;;;;;5046106;28;20186;-55
2023/09/05 07:06:07;;;;;;;13.50;12.80;;;19.00;99.90;;;;;;5045950;28;20206;-52
2023/09/05 07:08:33;;;;;;;12.77;12.07;;;19.10;99.90;;;;;;5046087;28;20186;-54
2023/09/05 07:10:59;;;;;;;13.10;12.40;;;19.20;99.90;;;;;;5045870;28;20173;-56
2023/09/05 07:13:25;;;;;;;12.73;12.03;;;19.20;99.90;;;;;;5045004;28;20181;-58
2023/09/05 07:15:51;;;;;;;13.13;12.20;;;19.30;99.90;;;;;;5045235;28;20194;-53
2023/09/05 07:18:18;;;;;;;12.87;12.17;;;19.40;99.90;;;;;;5044739;28;20424;-52
2023/09/05 07:20:44;;;;;;;12.53;11.93;;;19.50;99.90;;;;;;5054095;28;20973;-51
2023/09/05 07:23:09;;;;;;;13.30;12.60;;;19.60;99.90;;;;;;5054536;28;21027;-52
2023/09/05 07:25:39;;;;;;;12.40;11.80;;;19.60;99.90;;;;;;5054162;28;20460;-52
2023/09/05 07:28:05;;;;;;;12.87;12.17;;;19.70;99.90;;;;;;5054092;28;20181;-53
2023/09/05 07:30:34;;;;;;;13.30;12.50;;;19.80;99.90;;;;;;5054259;28;20442;-52
2023/09/05 07:32:59;;;;;;;13.50;12.70;;;19.90;99.90;;;;;;5050025;28;20408;-50
2023/09/05 07:35:25;;;;;;;13.23;12.53;;;20.00;99.90;;;;;;5050858;28;20483;-55
2023/09/05 07:37:51;;;;;;;13.37;12.63;;;20.10;99.90;;;;;;5054493;28;20189;-53
2023/09/05 07:40:17;;;;;;;12.93;12.23;;;20.20;99.90;;;;;;5055247;28;20201;-54
2023/09/05 07:42:42;;;;;;;12.43;11.83;;;20.30;99.90;;;;;;5053262;28;20182;-46
2023/09/05 07:45:12;;;;;;;13.40;12.70;;;20.40;99.90;;;;;;5049993;28;20466;-53
2023/09/05 07:47:37;;;;;;;13.50;12.60;;;20.60;99.90;;;;;;5056273;28;20181;-52
2023/09/05 07:50:03;;;;;;;13.83;13.03;;;20.70;99.90;;;;;;5055851;28;21086;-55
2023/09/05 07:52:29;;;;;;;12.30;11.60;;;20.80;99.90;;;;;;5051497;28;20256;-49
2023/09/05 07:54:54;;;;;;;13.40;12.47;;;20.90;99.90;;;;;;5051416;28;20483;-52
2023/09/05 07:57:20;;;;;;;13.90;13.20;;;21.00;99.90;;;;;;5051769;28;20248;-50
2023/09/05 07:59:46;;;;;;;12.90;12.20;;;21.10;99.90;;;;;;5051423;28;20638;-53
2023/09/05 08:02:11;;;;;;;11.87;11.27;;;21.30;99.90;;;;;;5051144;28;20178;-53
2023/09/05 08:04:38;;;;;;;13.10;12.40;;;21.40;99.30;;;;;;5051180;28;20174;-50
2023/09/05 08:07:06;;;;;;;13.37;12.43;;;21.50;98.00;;;;;;5051035;28;20225;-53
2023/09/05 08:09:33;;;;;;;12.80;12.10;;;21.70;96.30;;;;;;5051065;28;20416;-55
2023/09/05 08:11:58;;;;;;;13.27;12.60;;;21.80;95.20;;;;;;5049357;28;20501;-52
2023/09/05 08:14:24;;;;;;;12.43;11.83;;;21.90;94.00;;;;;;5047414;28;20436;-53
2023/09/05 08:16:49;;;;;;;12.93;12.33;;;22.00;92.10;;;;;;5049426;28;20194;-55
2023/09/05 08:19:15;;;;;;;12.40;11.80;;;22.10;90.30;;;;;;5050877;28;20674;-53
2023/09/05 08:21:41;;;;;;;13.03;12.33;;;22.20;90.40;;;;;;5051249;28;20235;-52
2023/09/05 08:24:09;;;;;;;11.50;10.93;;;22.40;88.90;;;;;;5049483;28;20197;-55
2023/09/05 08:26:36;;;;;;;12.00;11.40;;;22.60;85.90;;;;;;5050639;28;20281;-54
2023/09/05 08:29:03;;;;;;;13.03;12.33;;;22.70;82.10;;;;;;5050742;28;20902;-55
2023/09/05 08:31:30;;;;;;;11.27;10.77;;;22.80;81.80;;;;;;5050795;28;20936;-53
2023/09/05 08:33:56;;;;;;;12.53;11.93;;;23.00;80.70;;;;;;5049487;28;20464;-53
2023/09/05 08:36:22;;;;;;;12.40;11.80;;;23.20;77.90;;;;;;5050908;28;20933;-54
2023/09/05 08:38:47;;;;;;;13.03;12.43;;;23.30;76.40;;;;;;5050289;28;20431;-54
2023/09/05 08:41:13;;;;;;;11.70;11.20;;;23.50;75.50;;;;;;5039559;28;20364;-52
2023/09/05 08:43:38;;;;;;;12.70;12.10;;;23.80;74.30;;;;;;5044714;28;20264;-50
2023/09/05 08:46:04;;;;;;;12.30;11.67;;;24.20;71.40;;;;;;5043970;28;20213;-50
2023/09/05 08:48:31;;;;;;;11.93;11.33;;;24.50;66.40;;;;;;5047654;28;20536;-54
2023/09/05 08:51:00;;;;;;;12.83;12.20;;;24.70;63.70;;;;;;5050028;28;20170;-52
2023/09/05 08:53:36;;;;;;;11.43;10.93;;;24.90;60.60;;;;;;5049822;28;20444;-55
2023/09/05 08:56:02;;;;;;;12.70;12.10;;;25.40;59.50;;;;;;5049284;28;20469;-53
2023/09/05 08:58:29;;;;;;;12.37;11.77;;;25.60;58.70;;;;;;5049600;28;20432;-54
2023/09/05 09:00:55;;;;;;;12.60;11.90;;;26.00;55.90;;;;;;5050510;28;20422;-57
2023/09/05 09:03:21;;;;;;;12.23;11.73;;;26.40;56.20;;;;;;5048938;28;20443;-53
2023/09/05 09:05:47;;;;;;;12.47;11.93;;;26.80;53.50;;;;;;5049851;28;20459;-56
2023/09/05 09:08:13;;;;;;;12.23;11.70;;;27.30;52.60;;;;;;5049241;28;20177;-53
2023/09/05 09:10:40;;;;;;;12.10;11.50;;;27.60;50.70;;;;;;5047313;28;20431;-57
2023/09/05 09:13:19;;;;;;;11.53;11.03;;;28.00;48.70;;;;;;5034637;28;20425;-51
2023/09/05 09:15:46;;;;;;;11.40;10.80;;;28.40;48.80;;;;;;5045331;28;20448;-53
2023/09/05 09:18:20;;;;;;;11.73;11.23;;;28.80;45.10;;;;;;5043547;28;20511;-55
2023/09/05 09:20:50;;;;;;;11.70;11.20;;;29.40;45.70;;;;;;5042958;28;20419;-51
2023/09/05 09:23:26;;;;;;;11.70;11.10;;;29.80;43.10;;;;;;5042280;28;20478;-55
2023/09/05 09:25:54;;;;;;;12.77;11.97;;;30.10;40.80;;;;;;5049340;28;20538;-53
2023/09/05 09:28:28;;;;;;;11.83;11.33;;;30.40;40.10;;;;;;5049464;28;20448;-52
2023/09/05 09:31:01;;;;;;;12.93;12.23;;;30.80;38.60;;;;;;5043794;28;20441;-55
2023/09/05 09:33:27;;;;;;;11.90;11.40;;;31.00;36.20;;;;;;5043136;28;20468;-53
2023/09/05 09:36:07;;;;;;;12.53;12.03;;;31.20;36.50;;;;;;5047602;28;20519;-52
2023/09/05 09:38:34;;;;;;;11.90;11.40;;;31.60;36.30;;;;;;5044918;28;20946;-54
2023/09/05 09:41:01;;;;;;;12.47;11.87;;;31.50;33.60;;;;;;5042424;28;20416;-53
2023/09/05 09:43:28;;;;;;;11.63;11.13;;;31.50;34.10;;;;;;5041110;28;20420;-53
2023/09/05 09:45:53;;;;;;;12.00;11.50;;;31.90;34.70;;;;;;5039768;28;20510;-52
2023/09/05 09:48:21;;;;;;;11.67;11.17;;;31.90;32.00;;;;;;5048514;28;20440;-55
2023/09/05 09:50:48;;;;;;;10.93;10.53;;;31.90;33.30;;;;;;5047791;28;20185;-57
2023/09/05 09:53:26;;;;;;;12.30;11.70;;;31.80;31.50;;;;;;5040642;28;20441;-51
2023/09/05 09:55:53;;;;;;;12.00;11.50;;;31.90;31.40;;;;;;5038903;28;20424;-50
2023/09/05 09:58:22;;;;;;;12.50;11.80;;;32.20;30.80;;;;;;5048069;28;20463;-54
2023/09/05 10:00:49;;;;;;;11.97;11.47;;;32.30;31.30;;;;;;5047900;28;20420;-50
2023/09/05 10:03:15;;;;;;;12.00;11.50;;;32.80;31.10;;;;;;5042717;28;20423;-53
2023/09/05 10:05:43;;;;;;;12.30;11.80;;;33.00;29.40;;;;;;5046371;28;21110;-54
2023/09/05 10:08:12;;;;;;;12.50;12.00;;;33.20;29.30;;;;;;5047285;28;20444;-48
2023/09/05 10:10:41;;;;;;;12.27;11.77;;;33.20;29.20;;;;;;5047661;28;20620;-53
2023/09/05 10:13:11;;;;;;;11.90;11.20;;;33.50;28.40;;;;;;5042956;28;20448;-56
2023/09/05 10:15:39;;;;;;;12.60;12.00;;;32.50;28.50;;;;;;5047003;28;20485;-57
2023/09/05 10:18:12;;;;;;;11.83;11.13;;;32.70;29.20;;;;;;5034810;28;20531;-53
2023/09/05 10:20:40;;;;;;;11.90;11.40;;;32.90;29.30;;;;;;5048286;28;20466;-49
2023/09/05 10:23:06;;;;;;;12.50;11.70;;;33.10;28.30;;;;;;5042460;28;20413;-54
2023/09/05 10:25:36;;;;;;;12.60;11.83;;;33.10;28.80;;;;;;5046595;28;20570;-47
2023/09/05 10:28:02;;;;;;;11.80;11.30;;;32.90;27.80;;;;;;5035124;28;20436;-52
2023/09/05 10:30:28;;;;;;;12.43;11.83;;;33.20;27.80;;;;;;5041902;28;20420;-52
2023/09/05 10:32:54;;;;;;;12.60;12.00;;;32.70;27.90;;;;;;5045501;28;20439;-53
2023/09/05 10:35:22;;;;;;;11.93;11.33;;;32.70;28.10;;;;;;5048004;28;20463;-51
2023/09/05 10:37:56;;;;;;;12.37;11.70;;;33.00;28.30;;;;;;5047846;28;20178;-55
2023/09/05 10:40:42;;;;;;;12.30;11.70;;;33.30;28.50;;;;;;5047965;28;20415;-48
2023/09/05 10:43:14;;;;;;;12.10;11.60;;;33.40;27.00;;;;;;5035563;28;20437;-53
2023/09/05 10:45:40;;;;;;;12.93;12.33;;;33.60;27.60;;;;;;5047771;28;20541;-53
2023/09/05 10:48:17;;;;;;;12.40;11.90;;;32.70;27.20;;;;;;5036507;28;20890;-52
2023/09/05 10:51:14;;;;;;;12.30;11.80;;;32.70;27.70;;;;;;5035393;28;20404;-53
2023/09/05 10:53:41;;;;;;;11.90;11.40;;;33.20;28.00;;;;;;5043777;28;20424;-53
2023/09/05 10:56:41;;;;;;;12.90;12.30;;;33.60;27.80;;;;;;5042255;28;20417;-56
2023/09/05 10:59:26;;;;;;;13.50;12.90;;;33.70;26.10;;;;;;5035688;28;20804;-51
2023/09/05 11:02:00;;;;;;;12.70;12.10;;;34.10;27.20;;;;;;5047044;28;20767;-54
2023/09/05 11:04:27;;;;;;;12.60;12.00;;;34.40;25.20;;;;;;5045140;28;20415;-50
2023/09/05 11:06:54;;;;;;;12.43;11.93;;;34.30;24.80;;;;;;5047132;28;20542;-51
2023/09/05 11:09:20;;;;;;;12.33;11.73;;;34.90;25.20;;;;;;5037139;28;20409;-54
2023/09/05 11:11:46;;;;;;;12.13;11.63;;;34.70;24.60;;;;;;5046570;28;20447;-54
2023/09/05 11:14:11;;;;;;;12.60;12.00;;;34.30;24.60;;;;;;5046118;28;20178;-49
2023/09/05 11:16:49;;;;;;;12.80;12.20;;;34.30;23.90;;;;;;5047504;28;20299;-52
2023/09/05 11:19:38;;;;;;;11.87;11.27;;;34.50;24.80;;;;;;5037704;28;20181;-54
2023/09/05 11:22:22;;;;;;;12.27;11.77;;;34.60;23.50;;;;;;5046341;28;20948;-55
2023/09/05 11:25:00;;;;;;;12.83;12.33;;;34.70;23.50;;;;;;5031386;28;20935;-57
2023/09/05 11:27:31;;;;;;;12.63;12.13;;;33.80;23.00;;;;;;5044944;28;20481;-55
2023/09/05 11:30:09;;;;;;;11.97;11.47;;;33.90;24.70;;;;;;5045757;28;20754;-49
2023/09/05 11:32:38;;;;;;;12.37;11.77;;;34.30;24.70;;;;;;5048445;28;20844;-54
2023/09/05 11:35:05;;;;;;;12.20;11.70;;;34.90;23.80;;;;;;5051189;28;20463;-50
2023/09/05 11:37:33;;;;;;;12.63;11.63;;;34.60;23.70;;;;;;5045900;28;20476;-50
2023/09/05 11:40:13;;;;;;;12.13;11.63;;;35.10;23.80;;;;;;5045444;28;20894;-49
2023/09/05 11:42:39;;;;;;;12.10;11.60;;;35.50;23.40;;;;;;5046745;28;20439;-52
2023/09/05 11:45:15;;;;;;;12.73;12.13;;;35.40;22.90;;;;;;5049926;28;20435;-53
2023/09/05 11:47:42;;;;;;;12.63;12.03;;;35.70;22.60;;;;;;5046072;28;20193;-48
2023/09/05 11:50:08;;;;;;;12.77;12.17;;;36.00;22.70;;;;;;5047689;28;20489;-53
2023/09/05 11:52:40;;;;;;;12.00;11.50;;;36.20;21.70;;;;;;5047566;28;20432;-54
2023/09/05 11:55:06;;;;;;;11.90;11.37;;;36.30;21.70;;;;;;5043451;28;20749;-54
2023/09/05 11:57:33;;;;;;;12.07;11.57;;;36.00;21.40;;;;;;5047815;28;20801;-53
2023/09/05 11:59:59;;;;;;;12.17;11.67;;;36.00;20.80;;;;;;5047975;28;20890;-55
2023/09/05 12:02:24;;;;;;;12.70;12.10;;;36.00;21.10;;;;;;5049466;28;20427;-43
2023/09/05 12:04:50;;;;;;;13.00;12.40;;;35.90;20.60;;;;;;5047748;28;20264;-53
2023/09/05 12:07:16;;;;;;;12.50;11.90;;;35.60;21.00;;;;;;5049554;28;20201;-55
2023/09/05 12:09:43;;;;;;;13.47;12.80;;;35.60;20.50;;;;;;5047763;28;20173;-51
2023/09/05 12:12:13;;;;;;;12.20;11.70;;;35.70;21.10;;;;;;5050896;28;20549;-52
2023/09/05 12:14:52;;;;;;;12.53;11.83;;;36.10;21.30;;;;;;5048423;28;20424;-54
2023/09/05 12:17:19;;;;;;;11.30;10.80;;;36.20;21.20;;;;;;5050648;28;20506;-53
2023/09/05 12:19:47;;;;;;;12.03;11.43;;;36.00;20.40;;;;;;5050015;28;20906;-52
2023/09/05 12:22:23;;;;;;;12.23;11.70;;;36.20;20.50;;;;;;5050523;28;20459;-54
2023/09/05 12:25:08;;;;;;;12.57;11.97;;;35.20;19.70;;;;;;5050620;28;20428;-54
2023/09/05 12:27:34;;;;;;;12.10;11.50;;;35.00;20.10;;;;;;5049765;28;20416;-54
2023/09/05 12:29:59;;;;;;;12.90;12.40;;;35.20;20.50;;;;;;5050999;28;20439;-52